x

New London Ledge Ct - Ledge Light Weather Station (ldlc3) Weather Station

3:45 - Tue 23rd May 2017 All times are EDT. -4 hours from GMT.

  • Wind
    16mph, 17mph gusts
  • Aire Temp 57°f
  • Sea Pressure 1012.3mb
  • New London Ledge Ct - Ledge Light Weather Station
  • New London Ledge Ct - Ledge Light Weather Station

More Historic Weather Station data

Upgrade to MSW Pro to gain access to the past 30 days of data for over 8000 Wavebouys and Weather Stations around the globe.

Join Pro

Comparision Forecast

View Surf forecast
   
mar 05/23 3:45 16 17 mph 1012.3mb 57f
3:30 15 20 mph 1012.5mb 57f
3:15 13 15 mph 1012.5mb 57f
3:00 10 14 mph 1012.5mb 57f
2:45 10 11 mph 1012.3mb 57f
2:30 13 14 mph 1012.3mb 57f
2:15 9 13 mph 1012.5mb 57f
2:00 10 11 mph 1012.5mb 57f
1:45 8 10 mph 1012.3mb 57f
1:30 6 7 mph 1012.6mb 58f
1:15 6 7 mph 1012.6mb 58f
1:00 3 3 mph 1012.9mb 57f
lun 05/22 7:45 8 11 mph 1015.1mb 55f
7:15 10 11 mph 1015.3mb 54f
7:00 9 9 mph 1015.5mb 54f
6:45 9 10 mph 1015.7mb 54f
6:30 10 11 mph 1015.8mb 53f
6:15 10 13 mph 1015.8mb 53f
6:00 13 15 mph 1016mb 53f
5:45 14 15 mph 1016.3mb 53f
5:30 16 18 mph 1016.3mb 53f
5:15 16 17 mph 1016.4mb 53f
5:00 16 20 mph 1016.8mb 53f
4:45 17 21 mph 1016.9mb 53f
4:30 16 17 mph 1017.4mb 53f
4:15 16 18 mph 1017.5mb 52f
4:00 16 17 mph 1017.6mb 52f
3:45 16 17 mph 1017.9mb 51f
3:30 14 16 mph 1018.3mb 51f
3:15 14 15 mph 1018.6mb 50f
3:00 13 14 mph 1018.7mb 50f
2:45 14 16 mph 1018.8mb 50f
2:30 13 15 mph 1018.8mb 50f
2:15 15 16 mph 1019.1mb 51f
2:00 11 13 mph 1019.3mb 51f
1:45 13 14 mph 1019.7mb 51f
1:30 17 18 mph 1019.8mb 51f
1:15 16 20 mph 1019.9mb 53f
1:00 13 14 mph 1020mb 54f
12:45 14 16 mph 1020mb 54f
12:30 11 13 mph 1020.2mb 54f
12:15 11 14 mph 1020.2mb 54f
12:00 11 14 mph 1020.3mb 54f
11:45 11 13 mph 1020.4mb 54f
11:30 10 11 mph 1020.6mb 54f
11:15 11 13 mph 1020.9mb 54f
11:00 11 13 mph 1021.2mb 54f
10:45 13 14 mph 1021.2mb 54f
10:30 13 14 mph 1021.3mb 54f
10:15 13 15 mph 1021.5mb 54f
10:00 14 16 mph 1021.6mb 54f
9:45 13 15 mph 1021.7mb 54f
9:30 14 16 mph 1021.7mb 54f
9:15 13 14 mph 1021.8mb 53f
9:00 13 14 mph 1021.8mb 53f
8:45 11 13 mph 1022mb 53f
8:30 8 10 mph 1022.3mb 53f
8:15 10 11 mph 1022.3mb 53f
8:00 10 11 mph 1022.3mb 53f
7:45 8 9 mph 1022.4mb 52f
7:30 8 9 mph 1022.5mb 52f
7:15 8 9 mph 1022.4mb 53f
7:00 9 11 mph 1022.4mb 53f
6:45 9 11 mph 1022.4mb 53f
6:30 8 9 mph 1022.4mb 53f
6:15 6 7 mph 1022.9mb 53f
6:00 6 7 mph 1022.8mb 53f
5:45 6 7 mph 1022.9mb 53f
5:30 7 8 mph 1022.7mb 53f
5:15 7 7 mph 1022.5mb 53f
5:00 5 6 mph 1022.9mb 53f
4:45 5 6 mph 1023mb 53f
4:30 5 5 mph 1022.8mb 53f
4:15 5 6 mph 1022.8mb 53f
4:00 5 6 mph 1022.6mb 53f
3:45 3 5 mph 1022.8mb 54f
3:30 3 5 mph 1022.8mb 54f
3:15 5 5 mph 1022.6mb 54f
3:00 5 6 mph 1022.6mb 54f
2:45 5 6 mph 1022.8mb 54f
2:30 6 7 mph 1022.9mb 54f
2:15 5 5 mph 1023.1mb 54f
2:00 5 6 mph 1023.2mb 54f
1:45 3 5 mph 1023.4mb 54f
1:30 3 5 mph 1023.5mb 54f
1:15 3 3 mph 1023.9mb 54f
1:00 5 5 mph 1023.7mb 54f
dom 05/21 7:45 11 13 mph 1025.3mb 56f
7:30 11 13 mph 1025.2mb 56f
7:15 11 11 mph 1025.4mb 56f
7:00 11 13 mph 1025.5mb 56f
6:45 13 14 mph 1025.4mb 56f
6:30 13 14 mph 1025.4mb 56f
6:15 13 15 mph 1025.5mb 57f
6:00 14 15 mph 1025.5mb 57f
5:45 14 15 mph 1025.7mb 57f
5:30 14 15 mph 1025.9mb 57f
5:15 14 15 mph 1025.9mb 57f
5:00 14 15 mph 1026mb 58f
4:45 14 15 mph 1025.9mb 58f
4:30 11 13 mph 1026.1mb 57f
4:15 11 13 mph 1026mb 57f
4:00 9 11 mph 1026mb 57f
3:45 8 9 mph 1026.3mb 57f
3:30 8 9 mph 1026.7mb 57f
3:15 10 11 mph 1027mb 60f
3:00 9 10 mph 1027mb 60f
2:45 9 10 mph 1026.6mb 59f
2:30 8 10 mph 1026.5mb 59f
2:15 8 9 mph 1026.9mb 59f
2:00 8 9 mph 1027.1mb 60f
1:45 6 7 mph 1027.4mb 62f
1:30 5 6 mph 1027.5mb 61f
1:15 5 6 mph 1027.7mb 61f
1:00 5 6 mph 1027.9mb 61f
12:45 6 6 mph 1028mb 60f
12:30 7 7 mph 1028.2mb 61f
12:15 7 8 mph 1028.2mb 60f
12:00 8 8 mph 1028.4mb 59f
11:45 6 7 mph 1028.4mb 61f
11:30 6 7 mph 1028.5mb 60f
11:15 7 8 mph 1028.5mb 58f
11:00 8 9 mph 1028.6mb 58f
10:45 5 6 mph 1028.6mb 61f
10:30 6 7 mph 1028.7mb 60f
10:15 5 6 mph 1029mb 60f
10:00 5 6 mph 1028.9mb 60f
9:45 3 3 mph 1028.7mb 59f
9:30 2 3 mph 1028.5mb 58f
9:15 2 3 mph 1028.4mb 60f
9:00  -  1 mph 1028.2mb 60f
8:45 2 3 mph 1028.1mb 59f
8:30 2 2 mph 1028.2mb 59f
8:15 2 5 mph 1028.4mb 58f
8:00 2 3 mph 1028.6mb 56f
7:45 5 7 mph 1028.6mb 53f
7:30 6 7 mph 1028.5mb 52f
7:15 3 6 mph 1028.5mb 53f
7:00 7 8 mph 1028.4mb 52f
6:45 7 7 mph 1028.3mb 52f
6:30 9 10 mph 1028.4mb 52f
6:15 8 9 mph 1028mb 51f
6:00 9 10 mph 1027.8mb 50f
5:45 10 11 mph 1027.6mb 50f
5:30 10 11 mph 1027.3mb 50f
5:15 7 8 mph 1027mb 50f
5:00 6 7 mph 1026.9mb 50f
4:45 5 6 mph 1026.9mb 50f
4:30 5 5 mph 1026.9mb 50f
4:15 5 6 mph 1026.9mb 50f
4:00 6 7 mph 1026.9mb 52f
3:45 6 7 mph 1026.9mb 51f
3:30 6 7 mph 1027.1mb 51f
3:15 6 6 mph 1027mb 50f
3:00 5 5 mph 1027mb 50f
2:45 5 6 mph 1027mb 51f
2:30 3 5 mph 1026.6mb 51f
2:15 2 3 mph 1026.9mb 51f
2:00 3 5 mph 1027mb 51f
1:45 3 3 mph 1027mb 51f
1:30 3 5 mph 1027.1mb 52f
1:15 5 5 mph 1027.3mb 53f
1:00 5 8 mph 1027.1mb 53f
sáb 05/20 7:45 7 8 mph 1025.6mb 54f
7:15 8 9 mph 1025.3mb 54f
7:00 9 10 mph 1025.4mb 55f
6:45 10 11 mph 1025.2mb 55f
6:30 9 10 mph 1025.2mb 55f
6:15 10 11 mph 1025.2mb 55f
6:00 10 11 mph 1025.2mb 55f
5:45 11 11 mph 1025.2mb 55f
5:30 9 10 mph 1025.2mb 55f
5:15 10 11 mph 1025.3mb 55f
5:00 10 10 mph 1025.4mb 55f
4:45 10 11 mph 1025.3mb 55f
4:30 10 11 mph 1025mb 56f
4:15 10 11 mph 1025.1mb 55f
4:00 10 11 mph 1025mb 55f
3:45 10 11 mph 1024.9mb 56f
3:30 10 11 mph 1025.1mb 55f
3:15 11 13 mph 1025.1mb 55f
3:00 11 13 mph 1025.1mb 55f
2:45 13 14 mph 1024.9mb 55f
2:30 13 14 mph 1025.2mb 55f
2:15 11 13 mph 1025mb 55f
2:00 11 13 mph 1025.1mb 56f
1:45 10 11 mph 1024.9mb 57f
1:30 11 13 mph 1024.8mb 56f
1:15 10 11 mph 1024.8mb 56f
1:00 9 10 mph 1024.8mb 56f
12:45 9 11 mph 1024.8mb 56f
12:30 8 9 mph 1024.8mb 57f
12:15 7 8 mph 1024.7mb 57f
12:00 5 7 mph 1024.9mb 59f
11:45 7 8 mph 1024.7mb 59f
11:30 7 10 mph 1024.7mb 58f
11:15 10 13 mph 1024.6mb 58f
11:00 8 13 mph 1024.7mb 58f
10:45 7 10 mph 1024.7mb 58f
10:30 10 15 mph 1024.8mb 57f
10:15 10 14 mph 1024.7mb 58f
10:00 10 15 mph 1024.3mb 58f
9:45 13 16 mph 1024.3mb 58f
9:30 11 16 mph 1024.2mb 58f
9:15 15 18 mph 1024mb 58f
9:00 13 17 mph 1024mb 58f
8:45 9 10 mph 1024mb 58f
8:30 9 11 mph 1024mb 57f
8:15 9 13 mph 1023.9mb 57f
8:00 10 16 mph 1023.6mb 57f
7:45 11 16 mph 1023mb 57f
7:30 9 13 mph 1022.9mb 57f
7:15 7 11 mph 1022.9mb 57f
7:00 8 11 mph 1022.4mb 57f
6:45 9 13 mph 1022mb 57f
6:30 9 11 mph 1021.9mb 57f
6:15 10 13 mph 1021.7mb 57f
6:00 7 9 mph 1021.6mb 57f
5:45 9 13 mph 1021.3mb 57f
5:30 9 13 mph 1020.8mb 57f
5:15 9 15 mph 1020.3mb 58f
5:00 11 17 mph 1020.1mb 58f
4:45 15 21 mph 1020mb 58f
4:30 11 17 mph 1019.6mb 58f
4:15 14 21 mph 1019.3mb 58f
4:00 16 20 mph 1019mb 59f
3:45 20 26 mph 1018.6mb 59f
3:30 21 28 mph 1018.6mb 59f
3:15 23 28 mph 1018.5mb 60f
3:00 21 25 mph 1018.6mb 60f
2:45 16 21 mph 1018.3mb 61f
2:30 18 24 mph 1018mb 61f
2:15 25 29 mph 1017.5mb 62f
2:00 28 32 mph 1017.3mb 62f
1:45 25 29 mph 1017.3mb 63f
1:30 23 30 mph 1017.3mb 64f
1:15 25 32 mph 1017.3mb 65f
1:00 15 18 mph 1017.6mb 66f
vie 05/19 7:45 10 14 mph 1011.1mb 79f
7:15 16 17 mph 1010.2mb 74f
7:00 15 17 mph 1010.1mb 74f
6:45 16 17 mph 1009.9mb 73f
6:30 15 16 mph 1009.7mb 73f
6:15 15 16 mph 1009.5mb 72f
6:00 15 16 mph 1009.4mb 70f
5:45 16 17 mph 1009.2mb 72f
5:30 17 18 mph 1009.2mb 73f
5:15 17 18 mph 1009.3mb 70f
5:00 16 18 mph 1009.3mb 69f
4:45 18 21 mph 1009.2mb 71f
4:30 17 18 mph 1009mb 72f
4:15 17 18 mph 1009mb 74f
4:00 17 18 mph 1009.3mb 72f
3:45 20 21 mph 1009.2mb 67f
3:30 18 21 mph 1009.3mb 70f
3:15 18 21 mph 1009.2mb 71f
3:00 20 21 mph 1009.2mb 71f
2:45 17 17 mph 1009.2mb 67f
2:30 18 20 mph 1009.4mb 67f
2:15 18 20 mph 1009.4mb 69f
2:00 18 20 mph 1009.4mb 67f
1:45 20 21 mph 1009.4mb 66f
1:30 20 22 mph 1009.5mb 68f
1:15 21 21 mph 1009.5mb 66f
1:00 21 23 mph 1009.6mb 66f
12:45 18 20 mph 1009.7mb 66f
12:30 20 22 mph 1009.7mb 67f
12:15 17 18 mph 1010.1mb 66f
12:00 18 21 mph 1010.1mb 65f
11:45 21 22 mph 1010.1mb 66f
11:30 20 21 mph 1010.4mb 65f
11:15 18 21 mph 1010.3mb 64f
11:00 17 20 mph 1010.3mb 65f
10:45 17 18 mph 1010.6mb 64f
10:30 18 21 mph 1010.6mb 65f
10:15 17 18 mph 1010.6mb 65f
10:00 18 20 mph 1010.7mb 65f
9:45 18 20 mph 1010.8mb 66f
9:30 20 21 mph 1010.8mb 66f
9:15 18 20 mph 1010.8mb 68f
9:00 22 23 mph 1010.8mb 67f